createdAt,value
2022-11-10T00:01:09.446Z,1.60
2022-11-10T00:03:37.495Z,1.70
2022-11-10T00:06:05.414Z,1.70
2022-11-10T00:08:32.014Z,1.70
2022-11-10T00:11:02.059Z,1.73
2022-11-10T00:13:33.834Z,1.83
2022-11-10T00:18:46.130Z,2.20
2022-11-10T00:21:13.619Z,2.15
2022-11-10T00:23:40.706Z,2.10
2022-11-10T00:26:18.088Z,2.00
2022-11-10T00:28:45.028Z,2.08
2022-11-10T00:31:12.707Z,1.92
2022-11-10T00:33:41.288Z,2.20
2022-11-10T00:36:08.535Z,1.73
2022-11-10T00:38:35.071Z,2.13
2022-11-10T00:41:01.919Z,1.80
2022-11-10T00:43:29.601Z,1.85
2022-11-10T00:45:56.524Z,1.95
2022-11-10T00:48:23.101Z,1.67
2022-11-10T00:50:49.594Z,1.90
2022-11-10T00:53:16.153Z,1.60
2022-11-10T00:55:42.893Z,1.60
2022-11-10T00:58:09.711Z,2.00
2022-11-10T01:00:36.378Z,1.70
2022-11-10T01:03:03.162Z,1.88
2022-11-10T01:05:30.492Z,1.80
2022-11-10T01:07:59.986Z,1.83
2022-11-10T01:10:27.159Z,1.55
2022-11-10T01:12:53.974Z,1.73
2022-11-10T01:15:26.013Z,1.70
2022-11-10T01:17:55.267Z,1.52
2022-11-10T01:20:21.919Z,1.60
2022-11-10T01:22:48.492Z,1.58
2022-11-10T01:25:14.980Z,1.60
2022-11-10T01:27:41.526Z,1.70
2022-11-10T01:30:08.315Z,1.60
2022-11-10T01:32:34.835Z,1.88
2022-11-10T01:35:01.384Z,1.48
2022-11-10T01:37:28.083Z,1.20
2022-11-10T01:39:54.616Z,1.60
2022-11-10T01:42:26.975Z,1.50
2022-11-10T01:45:24.481Z,1.50
2022-11-10T01:47:53.736Z,1.52
2022-11-10T01:50:21.739Z,1.40
2022-11-10T01:52:50.625Z,1.40
2022-11-10T01:55:17.613Z,1.50
2022-11-10T01:57:44.196Z,1.60
2022-11-10T02:00:11.180Z,1.60
2022-11-10T02:02:52.234Z,1.58
2022-11-10T02:05:20.460Z,1.90
2022-11-10T02:07:47.116Z,1.77
2022-11-10T02:10:17.879Z,1.42
2022-11-10T02:12:45.096Z,1.60
2022-11-10T02:15:13.599Z,1.30
2022-11-10T02:17:40.940Z,1.55
2022-11-10T02:20:10.619Z,1.42
2022-11-10T02:22:38.032Z,1.50
2022-11-10T02:25:05.881Z,1.50
2022-11-10T02:27:32.543Z,1.45
2022-11-10T02:29:59.493Z,1.40
2022-11-10T02:32:26.218Z,1.50
2022-11-10T02:34:52.792Z,1.40
2022-11-10T02:37:19.478Z,1.45
2022-11-10T02:39:46.031Z,1.63
2022-11-10T02:42:12.487Z,1.70
2022-11-10T02:44:42.519Z,1.40
2022-11-10T02:47:09.195Z,1.70
2022-11-10T02:49:35.651Z,1.42
2022-11-10T02:52:02.497Z,1.52
2022-11-10T02:54:29.013Z,1.50
2022-11-10T02:56:55.575Z,1.63
2022-11-10T02:59:22.057Z,1.60
2022-11-10T03:01:48.559Z,1.55
2022-11-10T03:04:15.135Z,1.65
2022-11-10T03:06:41.748Z,1.50
2022-11-10T03:09:08.357Z,1.67
2022-11-10T03:11:34.884Z,1.40
2022-11-10T03:14:02.514Z,1.48
2022-11-10T03:16:29.955Z,1.55
2022-11-10T03:18:56.560Z,1.60
2022-11-10T03:21:23.096Z,1.40
2022-11-10T03:23:49.735Z,1.58
2022-11-10T03:26:16.207Z,1.40
2022-11-10T03:28:42.860Z,1.42
2022-11-10T03:31:09.315Z,1.60
2022-11-10T03:33:35.794Z,1.60
2022-11-10T03:36:02.355Z,1.63
2022-11-10T03:38:28.831Z,1.40
2022-11-10T03:43:41.858Z,2.00
2022-11-10T03:46:08.880Z,1.65
2022-11-10T03:48:35.586Z,1.60
2022-11-10T03:51:02.120Z,1.60
2022-11-10T03:53:28.681Z,1.50
2022-11-10T03:55:55.176Z,1.90
2022-11-10T03:58:21.872Z,1.60
2022-11-10T04:00:48.343Z,1.73
2022-11-10T04:03:17.486Z,1.50
2022-11-10T04:06:02.330Z,1.70
2022-11-10T04:08:47.750Z,1.45
2022-11-10T04:11:34.431Z,1.55
2022-11-10T04:14:19.574Z,1.83
2022-11-10T04:16:46.103Z,1.45
2022-11-10T04:19:12.598Z,1.60
2022-11-10T04:21:39.101Z,1.73
2022-11-10T04:24:06.257Z,1.70
2022-11-10T04:26:33.682Z,1.80
2022-11-10T04:29:02.511Z,1.55
2022-11-10T04:31:30.880Z,1.90
2022-11-10T04:33:58.178Z,1.80
2022-11-10T04:36:27.166Z,2.00
2022-11-10T04:38:55.372Z,1.73
2022-11-10T04:41:22.873Z,1.70
2022-11-10T04:43:49.440Z,1.92
2022-11-10T04:46:36.514Z,1.73
2022-11-10T04:49:05.133Z,1.85
2022-11-10T04:51:34.259Z,2.20
2022-11-10T04:54:01.440Z,1.77
2022-11-10T04:56:28.192Z,1.80
2022-11-10T04:58:55.480Z,2.00
2022-11-10T05:01:24.207Z,2.10
2022-11-10T05:03:51.366Z,1.85
2022-11-10T05:06:18.505Z,2.30
2022-11-10T05:08:46.115Z,2.00
2022-11-10T05:11:12.795Z,2.10
2022-11-10T05:13:39.617Z,2.28
2022-11-10T05:16:07.348Z,2.40
2022-11-10T05:18:34.336Z,2.17
2022-11-10T05:21:01.079Z,2.50
2022-11-10T05:23:39.840Z,2.40
2022-11-10T05:26:10.754Z,2.60
2022-11-10T05:28:37.958Z,2.63
2022-11-10T05:31:04.883Z,2.50
2022-11-10T05:33:31.597Z,2.78
2022-11-10T05:35:58.070Z,2.53
2022-11-10T05:38:24.898Z,2.50
2022-11-10T05:40:52.836Z,2.65
2022-11-10T05:43:21.999Z,3.00
2022-11-10T05:45:48.891Z,2.80
2022-11-10T05:48:15.458Z,2.63
2022-11-10T05:50:43.410Z,2.42
2022-11-10T05:53:10.465Z,2.30
2022-11-10T05:55:37.168Z,2.50
2022-11-10T05:58:03.847Z,2.65
2022-11-10T06:00:31.590Z,2.20
2022-11-10T06:03:08.250Z,2.90
2022-11-10T06:05:35.919Z,2.50
2022-11-10T06:08:04.891Z,2.40
2022-11-10T06:10:32.314Z,2.28
2022-11-10T06:12:59.226Z,2.65
2022-11-10T06:15:26.245Z,2.33
2022-11-10T06:17:53.070Z,2.20
2022-11-10T06:20:19.970Z,2.20
2022-11-10T06:23:05.622Z,2.35
2022-11-10T06:25:34.440Z,2.25
2022-11-10T06:28:01.438Z,2.40
2022-11-10T06:30:28.594Z,2.20
2022-11-10T06:32:55.248Z,2.20
2022-11-10T06:35:22.505Z,1.98
2022-11-10T06:38:00.099Z,2.30
2022-11-10T06:40:27.242Z,2.10
2022-11-10T06:42:53.762Z,2.10
2022-11-10T06:45:20.236Z,2.20
2022-11-10T06:47:46.722Z,1.90
2022-11-10T06:50:13.572Z,2.17
2022-11-10T06:52:40.016Z,1.85
2022-11-10T06:55:06.846Z,1.98
2022-11-10T06:57:39.957Z,2.00
2022-11-10T07:00:07.354Z,1.92
2022-11-10T07:02:33.894Z,2.55
2022-11-10T07:05:00.445Z,1.83
2022-11-10T07:07:26.956Z,2.20
2022-11-10T07:09:53.428Z,2.20
2022-11-10T07:12:19.956Z,1.90
2022-11-10T07:14:46.464Z,1.90
2022-11-10T07:17:12.984Z,2.03
2022-11-10T07:19:39.577Z,1.85
2022-11-10T07:22:10.722Z,1.90
2022-11-10T07:24:37.991Z,1.60
2022-11-10T07:27:04.503Z,1.48
2022-11-10T07:29:31.020Z,1.55
2022-11-10T07:31:57.672Z,1.95
2022-11-10T07:34:24.192Z,1.83
2022-11-10T07:36:50.684Z,1.83
2022-11-10T07:39:17.240Z,1.48
2022-11-10T07:41:43.739Z,1.70
2022-11-10T07:44:10.377Z,1.63
2022-11-10T07:46:36.858Z,1.85
2022-11-10T07:49:03.383Z,1.67
2022-11-10T07:51:30.837Z,1.50
2022-11-10T07:53:57.459Z,1.50
2022-11-10T07:56:23.975Z,1.70
2022-11-10T07:58:50.465Z,1.60
2022-11-10T08:01:17.029Z,1.48
2022-11-10T08:03:43.871Z,1.75
2022-11-10T08:06:10.355Z,1.55
2022-11-10T08:08:36.904Z,1.70
2022-11-10T08:11:03.469Z,1.83
2022-11-10T08:13:30.035Z,1.70
2022-11-10T08:15:59.401Z,1.60
2022-11-10T08:18:29.586Z,1.63
2022-11-10T08:21:01.771Z,1.60
2022-11-10T08:23:31.245Z,1.75
2022-11-10T08:25:58.721Z,1.33
2022-11-10T08:28:26.289Z,1.50
2022-11-10T08:30:52.869Z,1.60
2022-11-10T08:33:21.198Z,1.30
2022-11-10T08:35:49.789Z,1.52
2022-11-10T08:38:18.561Z,1.20
2022-11-10T08:40:45.666Z,1.40
2022-11-10T08:43:13.098Z,1.60
2022-11-10T08:45:42.562Z,1.38
2022-11-10T08:48:11.598Z,1.40
2022-11-10T08:50:38.096Z,1.23
2022-11-10T08:53:16.003Z,1.10
2022-11-10T08:55:43.622Z,1.27
2022-11-10T08:58:13.080Z,1.20
2022-11-10T09:00:39.938Z,1.20
2022-11-10T09:03:08.866Z,1.00
2022-11-10T09:05:36.116Z,1.00
2022-11-10T09:08:03.982Z,1.10
2022-11-10T09:10:31.714Z,1.20
2022-11-10T09:13:02.509Z,1.00
2022-11-10T09:15:29.944Z,1.07
2022-11-10T09:18:00.483Z,1.00
2022-11-10T09:20:28.600Z,1.15
2022-11-10T09:22:55.433Z,0.95
2022-11-10T09:25:22.682Z,1.00
2022-11-10T09:27:49.326Z,0.90
2022-11-10T09:30:17.911Z,0.70
2022-11-10T09:32:46.799Z,0.80
2022-11-10T09:35:13.783Z,0.68
2022-11-10T09:37:40.647Z,0.82
2022-11-10T09:40:15.066Z,0.88
2022-11-10T09:42:41.821Z,0.80
2022-11-10T09:45:22.064Z,0.70
2022-11-10T09:48:00.972Z,0.80
2022-11-10T09:50:51.607Z,0.73
2022-11-10T09:53:23.124Z,0.85
2022-11-10T09:55:53.622Z,0.70
2022-11-10T09:58:24.090Z,0.60
2022-11-10T10:01:01.391Z,0.80
2022-11-10T10:03:30.129Z,0.90
2022-11-10T10:06:12.720Z,1.10
2022-11-10T10:08:57.922Z,0.95
2022-11-10T10:11:27.524Z,1.17
2022-11-10T10:14:02.927Z,1.00
2022-11-10T10:16:49.146Z,1.10
2022-11-10T10:19:37.509Z,1.30
2022-11-10T10:22:28.339Z,1.10
2022-11-10T10:24:58.185Z,1.38
2022-11-10T10:27:26.444Z,1.42
2022-11-10T10:29:53.177Z,1.15
2022-11-10T10:32:21.159Z,1.00
2022-11-10T10:34:47.671Z,1.25
2022-11-10T10:37:27.009Z,1.10
2022-11-10T10:39:55.609Z,0.90
2022-11-10T10:42:36.376Z,1.08
2022-11-10T10:45:18.275Z,1.20
2022-11-10T10:47:45.943Z,1.20
2022-11-10T10:50:35.089Z,1.23
2022-11-10T10:53:19.444Z,1.10
2022-11-10T10:55:59.834Z,1.10
2022-11-10T10:58:31.551Z,0.80
2022-11-10T11:01:20.483Z,1.10
2022-11-10T11:03:50.098Z,1.10
2022-11-10T11:06:19.322Z,0.80
2022-11-10T11:09:01.187Z,1.00
2022-11-10T11:11:30.786Z,1.00
2022-11-10T11:14:21.675Z,1.10
2022-11-10T11:17:01.944Z,0.93
2022-11-10T11:19:35.677Z,1.20
2022-11-10T11:22:15.604Z,1.00
2022-11-10T11:25:09.886Z,0.85
2022-11-10T11:27:45.475Z,1.08
2022-11-10T11:30:19.165Z,1.23
2022-11-10T11:32:58.648Z,1.10
2022-11-10T11:35:31.780Z,1.20
2022-11-10T11:38:25.413Z,1.33
2022-11-10T11:41:08.343Z,1.38
2022-11-10T11:44:01.009Z,1.33
2022-11-10T11:47:06.550Z,1.25
2022-11-10T11:49:53.712Z,1.55
2022-11-10T11:52:39.131Z,1.35
2022-11-10T11:55:31.273Z,1.55
2022-11-10T11:57:57.708Z,1.63
2022-11-10T12:00:24.666Z,1.73
2022-11-10T12:03:14.569Z,1.60
2022-11-10T12:06:11.868Z,2.00
2022-11-10T12:08:47.854Z,2.05
2022-11-10T12:11:33.179Z,1.90
2022-11-10T12:13:59.681Z,1.90
2022-11-10T12:16:31.029Z,2.20
2022-11-10T12:19:23.072Z,2.35
2022-11-10T12:21:54.113Z,2.28
2022-11-10T12:24:53.970Z,2.20
2022-11-10T12:27:35.975Z,2.40
2022-11-10T12:30:08.618Z,2.38
2022-11-10T12:32:41.918Z,2.22
2022-11-10T12:35:25.045Z,1.98
2022-11-10T12:38:26.262Z,2.50
2022-11-10T12:40:57.874Z,2.30
2022-11-10T12:43:50.528Z,2.08
2022-11-10T12:46:17.015Z,2.00
2022-11-10T12:49:01.780Z,2.50
2022-11-10T12:51:33.710Z,2.20
2022-11-10T12:54:00.374Z,1.98
2022-11-10T12:56:37.969Z,2.00
2022-11-10T12:59:19.445Z,2.45
2022-11-10T13:01:48.664Z,2.30
2022-11-10T13:04:16.046Z,2.00
2022-11-10T13:06:51.628Z,2.08
2022-11-10T13:09:30.269Z,1.98
2022-11-10T13:12:18.342Z,2.10
2022-11-10T13:14:46.376Z,1.80
2022-11-10T13:17:39.193Z,2.28
2022-11-10T13:20:51.887Z,2.08
2022-11-10T13:23:31.175Z,1.70
2022-11-10T13:25:59.327Z,1.80
2022-11-10T13:28:47.606Z,1.98
2022-11-10T13:31:29.295Z,1.60
2022-11-10T13:36:40.484Z,1.70
2022-11-10T13:39:19.205Z,1.63
2022-11-10T13:41:49.991Z,2.10
2022-11-10T13:44:28.404Z,2.10
2022-11-10T13:47:10.181Z,1.73
2022-11-10T13:52:29.156Z,1.70
2022-11-10T13:55:02.763Z,1.40
2022-11-10T13:57:37.426Z,1.40
2022-11-10T14:00:18.986Z,1.98
2022-11-10T14:02:57.141Z,1.45
2022-11-10T14:05:29.955Z,1.45
2022-11-10T14:08:07.372Z,1.55
2022-11-10T14:10:47.599Z,1.65
2022-11-10T14:13:18.510Z,1.58
2022-11-10T14:15:49.276Z,1.65
2022-11-10T14:18:22.786Z,1.53
2022-11-10T14:20:55.677Z,1.73
2022-11-10T14:23:28.379Z,1.40
2022-11-10T14:25:59.752Z,1.55
2022-11-10T14:28:27.092Z,1.77
2022-11-10T14:30:55.060Z,1.40
2022-11-10T14:33:24.042Z,1.30
2022-11-10T14:36:01.640Z,1.40
2022-11-10T14:38:31.368Z,1.40
2022-11-10T14:40:59.785Z,1.30
2022-11-10T14:43:29.422Z,1.20
2022-11-10T14:45:58.729Z,1.10
2022-11-10T14:48:27.682Z,1.20
2022-11-10T14:50:54.854Z,1.20
2022-11-10T14:53:51.049Z,1.10
2022-11-10T14:56:23.741Z,1.13
2022-11-10T14:58:51.305Z,1.00
2022-11-10T15:01:51.795Z,1.20
2022-11-10T15:04:18.391Z,1.20
2022-11-10T15:06:47.301Z,1.10
2022-11-10T15:09:29.535Z,1.17
2022-11-10T15:12:08.364Z,1.48
2022-11-10T15:14:38.726Z,1.30
2022-11-10T15:17:17.377Z,1.02
2022-11-10T15:19:46.987Z,1.20
2022-11-10T15:22:20.259Z,1.20
2022-11-10T15:24:48.174Z,1.10
2022-11-10T15:27:29.063Z,1.30
2022-11-10T15:29:58.281Z,1.00
2022-11-10T15:32:32.577Z,1.40
2022-11-10T15:35:23.955Z,1.60
2022-11-10T15:38:01.196Z,1.30
2022-11-10T15:40:34.473Z,1.42
2022-11-10T15:43:10.470Z,1.38
2022-11-10T15:45:37.794Z,1.60
2022-11-10T15:48:05.964Z,1.50
2022-11-10T15:50:32.688Z,1.50
2022-11-10T15:52:59.635Z,2.15
2022-11-10T15:55:26.152Z,1.70
2022-11-10T15:57:52.631Z,1.70
2022-11-10T16:00:19.187Z,1.60
2022-11-10T16:02:45.691Z,2.00
2022-11-10T16:05:12.744Z,1.92
2022-11-10T16:07:39.269Z,2.10
2022-11-10T16:10:06.220Z,2.03
2022-11-10T16:12:32.878Z,2.20
2022-11-10T16:14:59.770Z,2.30
2022-11-10T16:17:26.548Z,2.45
2022-11-10T16:19:53.002Z,2.10
2022-11-10T16:22:19.456Z,2.00
2022-11-10T16:24:46.196Z,2.20
2022-11-10T16:27:14.856Z,2.40
2022-11-10T16:29:41.980Z,2.47
2022-11-10T16:32:10.479Z,2.53
2022-11-10T16:34:37.123Z,2.90
2022-11-10T16:37:03.664Z,2.30
2022-11-10T16:39:30.601Z,2.63
2022-11-10T16:41:57.050Z,2.53
2022-11-10T16:44:25.318Z,2.60
2022-11-10T16:46:54.814Z,2.67
2022-11-10T16:49:28.069Z,2.70
2022-11-10T16:51:54.628Z,2.90
2022-11-10T16:54:21.310Z,2.90
2022-11-10T16:56:47.901Z,2.90
2022-11-10T16:59:14.531Z,3.30
2022-11-10T17:01:42.081Z,2.95
2022-11-10T17:04:10.473Z,3.20
2022-11-10T17:06:37.169Z,3.30
2022-11-10T17:09:11.831Z,2.70
2022-11-10T17:11:38.343Z,2.60
2022-11-10T17:14:06.922Z,2.20
2022-11-10T17:16:38.431Z,2.30
2022-11-10T17:19:06.641Z,2.20
2022-11-10T17:21:35.190Z,2.20
2022-11-10T17:24:03.549Z,2.15
2022-11-10T17:26:31.803Z,1.88
2022-11-10T17:28:58.415Z,1.92
2022-11-10T17:31:24.998Z,2.00
2022-11-10T17:33:51.518Z,2.15
2022-11-10T17:36:19.712Z,1.70
2022-11-10T17:38:46.385Z,1.65
2022-11-10T17:41:17.930Z,1.77
2022-11-10T17:43:47.739Z,1.70
2022-11-10T17:46:14.800Z,1.35
2022-11-10T17:48:41.566Z,1.60
2022-11-10T17:51:18.690Z,1.70
2022-11-10T17:53:45.345Z,1.60
2022-11-10T17:56:12.078Z,1.55
2022-11-10T17:58:38.620Z,1.50
2022-11-10T18:01:17.578Z,1.55
2022-11-10T18:03:45.748Z,2.10
2022-11-10T18:06:16.648Z,2.10
2022-11-10T18:08:43.744Z,2.10
2022-11-10T18:11:12.335Z,2.70
2022-11-10T18:13:40.097Z,2.30
2022-11-10T18:16:08.919Z,2.40
2022-11-10T18:18:36.037Z,2.55
2022-11-10T18:21:02.715Z,2.28
2022-11-10T18:23:29.236Z,2.30
2022-11-10T18:25:55.960Z,1.83
2022-11-10T18:28:22.511Z,1.95
2022-11-10T18:30:49.334Z,1.83
2022-11-10T18:33:15.824Z,1.60
2022-11-10T18:35:42.398Z,1.70
2022-11-10T18:38:11.562Z,2.08
2022-11-10T18:40:38.107Z,1.80
2022-11-10T18:43:07.729Z,1.73
2022-11-10T18:45:36.026Z,1.88
2022-11-10T18:48:03.885Z,1.83
2022-11-10T18:50:30.772Z,2.00
2022-11-10T18:52:57.658Z,2.00
2022-11-10T18:55:24.470Z,2.10
2022-11-10T18:57:51.191Z,2.22
2022-11-10T19:00:17.814Z,2.20
2022-11-10T19:02:44.450Z,2.35
2022-11-10T19:05:11.176Z,2.13
2022-11-10T19:07:37.639Z,2.50
2022-11-10T19:10:04.600Z,2.40
2022-11-10T19:12:31.802Z,2.40
2022-11-10T19:14:58.358Z,2.40
2022-11-10T19:17:24.832Z,2.40
2022-11-10T19:19:56.122Z,2.30
2022-11-10T19:22:23.334Z,2.90
2022-11-10T19:25:07.170Z,2.50
2022-11-10T19:27:35.224Z,2.25
2022-11-10T19:30:01.797Z,2.08
2022-11-10T19:32:29.446Z,2.03
2022-11-10T19:34:55.991Z,2.05
2022-11-10T19:37:22.565Z,1.70
2022-11-10T19:39:49.074Z,1.75
2022-11-10T19:42:15.585Z,1.80
2022-11-10T19:44:42.129Z,1.73
2022-11-10T19:47:09.027Z,1.88
2022-11-10T19:49:38.303Z,1.83
2022-11-10T19:52:04.861Z,1.70
2022-11-10T19:54:31.519Z,1.60
2022-11-10T19:56:58.101Z,1.58
2022-11-10T19:59:24.604Z,1.60
2022-11-10T20:01:51.168Z,1.63
2022-11-10T20:04:17.839Z,1.40
2022-11-10T20:06:44.522Z,1.35
2022-11-10T20:09:11.180Z,1.50
2022-11-10T20:11:37.671Z,1.20
2022-11-10T20:14:05.694Z,1.30
2022-11-10T20:16:32.219Z,1.30
2022-11-10T20:18:58.738Z,1.27
2022-11-10T20:21:25.304Z,1.30
2022-11-10T20:23:53.820Z,1.30
2022-11-10T20:26:20.636Z,1.20
2022-11-10T20:28:47.365Z,1.10
2022-11-10T20:31:23.634Z,1.45
2022-11-10T20:33:51.391Z,1.30
2022-11-10T20:36:29.770Z,1.10
2022-11-10T20:38:58.094Z,1.20
2022-11-10T20:41:28.391Z,1.20
2022-11-10T20:43:55.350Z,1.08
2022-11-10T20:46:48.124Z,1.17
2022-11-10T20:49:10.340Z,1.10
2022-11-10T20:51:37.665Z,1.15
2022-11-10T20:54:04.344Z,1.20
2022-11-10T20:56:30.918Z,1.00
2022-11-10T20:58:57.890Z,1.20
2022-11-10T21:01:24.576Z,0.98
2022-11-10T21:03:51.410Z,1.20
2022-11-10T21:06:17.968Z,1.20
2022-11-10T21:08:44.536Z,1.20
2022-11-10T21:11:11.429Z,1.13
2022-11-10T21:13:38.381Z,1.17
2022-11-10T21:16:06.655Z,1.15
2022-11-10T21:18:35.638Z,1.20
2022-11-10T21:21:03.120Z,1.02
2022-11-10T21:23:29.699Z,1.02
2022-11-10T21:25:58.543Z,1.08
2022-11-10T21:28:25.291Z,0.90
2022-11-10T21:30:51.984Z,0.82
2022-11-10T21:33:18.723Z,1.08
2022-11-10T21:35:45.321Z,0.98
2022-11-10T21:38:13.352Z,0.82
2022-11-10T21:40:40.413Z,1.00
2022-11-10T21:43:07.227Z,1.00
2022-11-10T21:45:33.815Z,0.90
2022-11-10T21:48:01.316Z,1.00
2022-11-10T21:50:27.938Z,0.98
2022-11-10T21:52:54.503Z,0.80
2022-11-10T21:55:21.133Z,0.80
2022-11-10T21:57:47.650Z,0.80
2022-11-10T22:00:14.587Z,0.80
2022-11-10T22:02:41.062Z,0.75
2022-11-10T22:05:07.929Z,0.75
2022-11-10T22:07:34.706Z,0.68
2022-11-10T22:10:19.845Z,0.60
2022-11-10T22:13:04.831Z,0.77
2022-11-10T22:15:49.872Z,0.60
2022-11-10T22:18:36.810Z,0.63
2022-11-10T22:21:04.449Z,0.60
2022-11-10T22:23:49.686Z,0.70
2022-11-10T22:26:16.284Z,0.80
2022-11-10T22:28:43.002Z,0.68
2022-11-10T22:31:10.821Z,0.70
2022-11-10T22:33:39.317Z,0.70
2022-11-10T22:36:08.884Z,0.60
2022-11-10T22:38:40.122Z,0.70
2022-11-10T22:41:27.304Z,0.70
2022-11-10T22:44:06.377Z,0.70
2022-11-10T22:46:36.996Z,0.80
2022-11-10T22:49:10.806Z,0.60
2022-11-10T22:51:38.700Z,0.70
2022-11-10T22:54:07.296Z,0.80
2022-11-10T22:56:34.122Z,0.70
2022-11-10T22:59:00.779Z,0.75
2022-11-10T23:01:27.894Z,0.65
2022-11-10T23:03:57.099Z,0.80
2022-11-10T23:06:24.170Z,0.70
2022-11-10T23:08:51.456Z,0.70
2022-11-10T23:11:20.985Z,0.63
2022-11-10T23:13:48.070Z,0.80
2022-11-10T23:16:17.439Z,0.70
2022-11-10T23:18:45.757Z,0.65
2022-11-10T23:21:14.338Z,0.70
2022-11-10T23:23:41.926Z,0.80
2022-11-10T23:26:13.545Z,0.70
2022-11-10T23:28:40.558Z,0.57
2022-11-10T23:31:08.451Z,0.60
2022-11-10T23:33:36.113Z,0.80
2022-11-10T23:36:03.528Z,0.68
2022-11-10T23:38:34.399Z,0.63
2022-11-10T23:41:02.080Z,0.83
2022-11-10T23:43:29.240Z,0.88
2022-11-10T23:46:11.593Z,0.75
2022-11-10T23:48:39.166Z,0.70
2022-11-10T23:51:07.286Z,0.98
2022-11-10T23:53:33.835Z,0.80
2022-11-10T23:56:02.189Z,0.88
2022-11-10T23:58:29.010Z,0.70
